This is the latest recevied weather packets stored in our database for station/object K3HM. If no packets are shown the sender has not sent any weather packets the latest 1 day(s).
| Time | Temp. | Humidity | Pressure | Rain* | Wind** | Luminosity | Snow |
|---|---|---|---|---|---|---|---|
| 1778006445 | 21.67° C | 46% | 1011.1 hPa | 0 mm | 2.68 m/s, 219° | 280 W/m² | - |
| 1778006141 | 21.67° C | 46% | 1011.1 hPa | 0 mm | 6.26 m/s, 246° | 257 W/m² | - |
| 1778005839 | 21.67° C | 46% | 1011.2 hPa | 0 mm | 3.58 m/s, 210° | 456 W/m² | - |
| 1778005535 | 21.67° C | 47% | 1010.8 hPa | 0 mm | 2.68 m/s, 248° | 272 W/m² | - |
| 1778005232 | 21.67° C | 47% | 1011.1 hPa | 0 mm | 2.68 m/s, 337° | 249 W/m² | - |
| 1778004928 | 21.67° C | 45% | 1011 hPa | 0 mm | 3.13 m/s, 244° | 243 W/m² | - |
| 1778004626 | 22.22° C | 45% | 1011 hPa | 0 mm | 4.02 m/s, 232° | 237 W/m² | - |
| 1778004321 | 22.22° C | 46% | 1011 hPa | 0 mm | 3.58 m/s, 224° | 629 W/m² | - |
| 1778004021 | 21.67° C | 48% | 1011 hPa | 0 mm | 2.68 m/s, 246° | 582 W/m² | - |
| 1778003714 | 21.67° C | 46% | 1011 hPa | 0 mm | 4.92 m/s, 244° | 701 W/m² | - |
| 1778003412 | 21.67° C | 48% | 1011.1 hPa | 0 mm | 2.68 m/s, 196° | 745 W/m² | - |
| 1778003109 | 21.67° C | 46% | 1011 hPa | 0 mm | 4.02 m/s, 230° | 822 W/m² | - |
| 1778002804 | 22.22° C | 44% | 1011.2 hPa | 0 mm | 6.26 m/s, 236° | 522 W/m² | - |
| 1778002501 | 22.22° C | 47% | 1011.3 hPa | 0 mm | 3.13 m/s, 233° | 306 W/m² | - |
| 1778002198 | 22.22° C | 46% | 1011.2 hPa | 0 mm | 4.92 m/s, 214° | 392 W/m² | - |
| 1778001897 | 22.22° C | 46% | 1011.4 hPa | 0 mm | 4.92 m/s, 214° | 863 W/m² | - |
| 1778001596 | 22.22° C | 47% | 1011.3 hPa | 0 mm | 5.81 m/s, 308° | 856 W/m² | - |
| 1778001293 | 22.22° C | 47% | 1011.1 hPa | 0 mm | 3.58 m/s, 255° | 763 W/m² | - |
| 1778000990 | 22.22° C | 46% | 1011.2 hPa | 0 mm | 3.13 m/s, 271° | 747 W/m² | - |
| 1778000686 | 21.67° C | 47% | 1011.6 hPa | 0 mm | 3.13 m/s, 262° | 800 W/m² | - |
| 1778000382 | 21.67° C | 45% | 1011.4 hPa | 0 mm | 4.02 m/s, 229° | 711 W/m² | - |
| 1778000078 | 21.11° C | 47% | 1011.5 hPa | 0 mm | 4.92 m/s, 219° | 498 W/m² | - |
| 1777999773 | 21.67° C | 47% | 1011.7 hPa | 0 mm | 5.36 m/s, 237° | 805 W/m² | - |
| 1777999470 | 20.56° C | 49% | 1011.8 hPa | 0 mm | 4.47 m/s, 233° | 769 W/m² | - |
| 1777999168 | 20° C | 50% | 1011.7 hPa | 0 mm | 3.58 m/s, 231° | 827 W/m² | - |
* Rain latest hour (hover to see other rain measurements)
** Current wind speed in m/s (hover to see current wind gust speed)